createdAt,value
2019-02-07T00:02:25.599Z,8.80
2019-02-07T00:04:54.558Z,6.40
2019-02-07T00:07:23.602Z,8.07
2019-02-07T00:09:52.286Z,10.47
2019-02-07T00:12:21.241Z,7.07
2019-02-07T00:14:49.583Z,6.70
2019-02-07T00:17:18.191Z,4.63
2019-02-07T00:19:47.340Z,5.55
2019-02-07T00:22:15.917Z,10.63
2019-02-07T00:24:44.395Z,5.57
2019-02-07T00:27:13.271Z,7.43
2019-02-07T00:29:42.082Z,5.47
2019-02-07T00:32:10.759Z,5.07
2019-02-07T00:34:39.371Z,6.50
2019-02-07T00:37:07.762Z,7.00
2019-02-07T00:39:36.214Z,7.47
2019-02-07T00:42:05.010Z,5.87
2019-02-07T00:44:33.842Z,9.37
2019-02-07T00:47:02.426Z,5.37
2019-02-07T00:49:31.214Z,5.77
2019-02-07T00:52:00.212Z,7.27
2019-02-07T00:54:28.564Z,11.22
2019-02-07T00:56:57.273Z,9.17
2019-02-07T00:59:25.643Z,8.23
2019-02-07T01:01:54.363Z,15.20
2019-02-07T01:04:22.750Z,10.23
2019-02-07T01:06:52.010Z,10.07
2019-02-07T01:09:20.752Z,8.10
2019-02-07T01:11:49.490Z,8.67
2019-02-07T01:14:18.036Z,5.20
2019-02-07T01:16:46.722Z,10.00
2019-02-07T01:19:15.446Z,8.10
2019-02-07T01:21:44.462Z,6.70
2019-02-07T01:24:13.430Z,6.33
2019-02-07T01:26:42.222Z,8.13
2019-02-07T01:29:10.907Z,8.10
2019-02-07T01:31:39.505Z,3.97
2019-02-07T01:34:08.074Z,4.10
2019-02-07T01:36:36.754Z,5.67
2019-02-07T01:39:07.062Z,5.47
2019-02-07T01:41:35.838Z,6.97
2019-02-07T01:44:04.510Z,3.77
2019-02-07T01:46:33.277Z,4.03
2019-02-07T01:49:02.062Z,24.70
2019-02-07T01:51:30.540Z,6.00
2019-02-07T01:53:59.418Z,7.17
2019-02-07T01:56:28.241Z,6.20
2019-02-07T01:58:56.978Z,6.63
2019-02-07T02:01:25.526Z,7.37
2019-02-07T02:03:53.911Z,5.20
2019-02-07T02:06:22.382Z,4.23
2019-02-07T02:08:51.829Z,5.17
2019-02-07T02:11:20.414Z,7.53
2019-02-07T02:13:48.975Z,5.73
2019-02-07T02:16:17.726Z,6.13
2019-02-07T02:18:46.672Z,7.23
2019-02-07T02:21:15.043Z,4.90
2019-02-07T02:23:43.947Z,8.13
2019-02-07T02:26:12.490Z,4.63
2019-02-07T02:28:41.415Z,7.20
2019-02-07T02:31:10.411Z,4.60
2019-02-07T02:33:39.319Z,6.03
2019-02-07T02:36:07.763Z,4.07
2019-02-07T02:38:36.171Z,5.20
2019-02-07T02:41:04.811Z,6.63
2019-02-07T02:43:33.144Z,4.60
2019-02-07T02:46:01.566Z,7.73
2019-02-07T02:48:29.947Z,4.20
2019-02-07T02:50:58.971Z,4.40
2019-02-07T02:53:27.268Z,3.40
2019-02-07T02:55:58.626Z,3.97
2019-02-07T02:58:28.321Z,7.13
2019-02-07T03:01:16.497Z,4.30
2019-02-07T03:03:54.426Z,6.13
2019-02-07T03:06:45.814Z,3.00
2019-02-07T03:09:34.483Z,9.87
2019-02-07T03:12:22.511Z,4.90
2019-02-07T03:15:09.330Z,4.40
2019-02-07T03:17:56.436Z,5.80
2019-02-07T03:20:41.154Z,7.77
2019-02-07T03:23:31.518Z,5.73
2019-02-07T03:26:19.326Z,6.37
2019-02-07T03:29:10.744Z,6.40
2019-02-07T03:32:05.243Z,5.33
2019-02-07T03:34:53.583Z,4.50
2019-02-07T03:37:56.991Z,6.07
2019-02-07T03:40:46.476Z,5.37
2019-02-07T03:43:34.292Z,7.23
2019-02-07T03:46:25.710Z,6.40
2019-02-07T03:49:12.520Z,5.87
2019-02-07T03:52:03.634Z,5.30
2019-02-07T03:55:00.549Z,5.43
2019-02-07T03:57:43.015Z,3.97
2019-02-07T04:00:34.201Z,8.30
2019-02-07T04:03:28.384Z,4.37
2019-02-07T04:06:14.889Z,9.90
2019-02-07T04:08:54.451Z,4.30
2019-02-07T04:11:41.138Z,4.90
2019-02-07T04:14:27.644Z,4.63
2019-02-07T04:17:14.758Z,7.00
2019-02-07T04:20:15.086Z,5.47
2019-02-07T04:23:21.340Z,5.90
2019-02-07T04:26:08.061Z,5.87
2019-02-07T04:28:56.102Z,9.43
2019-02-07T04:31:44.370Z,6.07
2019-02-07T04:34:30.953Z,7.03
2019-02-07T04:37:22.681Z,5.40
2019-02-07T04:40:12.609Z,6.07
2019-02-07T04:42:52.232Z,8.50
2019-02-07T04:45:32.085Z,9.10
2019-02-07T04:48:25.927Z,11.03
2019-02-07T04:51:24.435Z,16.90
2019-02-07T04:54:18.603Z,23.30
2019-02-07T04:57:10.013Z,15.60
2019-02-07T04:59:46.931Z,9.70
2019-02-07T05:02:38.240Z,5.27
2019-02-07T05:05:35.974Z,5.50
2019-02-07T05:08:35.996Z,5.27
2019-02-07T05:11:24.341Z,7.43
2019-02-07T05:14:05.706Z,7.93
2019-02-07T05:16:53.969Z,5.67
2019-02-07T05:19:45.081Z,4.20
2019-02-07T05:22:44.290Z,4.80
2019-02-07T05:25:31.605Z,3.77
2019-02-07T05:28:10.240Z,6.15
2019-02-07T05:30:58.799Z,5.30
2019-02-07T05:33:41.829Z,5.77
2019-02-07T05:36:29.939Z,3.40
2019-02-07T05:39:11.139Z,7.13
2019-02-07T05:41:52.275Z,7.20
2019-02-07T05:44:38.698Z,5.97
2019-02-07T05:47:27.045Z,5.50
2019-02-07T05:50:14.394Z,6.10
2019-02-07T05:53:02.508Z,6.80
2019-02-07T05:55:50.856Z,6.13
2019-02-07T05:58:31.550Z,7.50
2019-02-07T06:01:18.027Z,9.67
2019-02-07T06:04:06.374Z,8.60
2019-02-07T06:06:55.026Z,8.87
2019-02-07T06:09:34.179Z,8.37
2019-02-07T06:12:23.043Z,7.93
2019-02-07T06:15:23.448Z,5.90
2019-02-07T06:18:26.801Z,9.33
2019-02-07T06:21:18.264Z,9.13
2019-02-07T06:24:09.682Z,8.53
2019-02-07T06:27:06.631Z,11.17
2019-02-07T06:29:55.594Z,11.73
2019-02-07T06:32:46.396Z,7.50
2019-02-07T06:35:33.208Z,10.30
2019-02-07T06:38:24.013Z,10.97
2019-02-07T06:41:18.503Z,12.83
2019-02-07T06:44:21.903Z,9.17
2019-02-07T06:47:13.288Z,8.13
2019-02-07T06:49:53.988Z,5.13
2019-02-07T06:53:00.481Z,8.20
2019-02-07T06:55:42.076Z,12.17
2019-02-07T06:58:45.141Z,15.80
2019-02-07T07:01:39.630Z,10.47
2019-02-07T07:04:30.742Z,12.00
2019-02-07T07:07:22.835Z,10.03
2019-02-07T07:10:22.802Z,10.67
2019-02-07T07:13:11.142Z,8.27
2019-02-07T07:16:01.946Z,9.23
2019-02-07T07:18:50.584Z,13.60
2019-02-07T07:21:50.928Z,11.13
2019-02-07T07:24:37.739Z,8.83
2019-02-07T07:27:25.778Z,10.87
2019-02-07T07:30:16.893Z,11.80
2019-02-07T07:33:03.394Z,15.70
2019-02-07T07:36:00.649Z,10.57
2019-02-07T07:38:48.996Z,9.80
2019-02-07T07:41:43.179Z,8.37
2019-02-07T07:44:31.220Z,10.53
2019-02-07T07:47:18.032Z,9.23
2019-02-07T07:50:12.214Z,9.60
2019-02-07T07:53:12.547Z,9.40
2019-02-07T07:55:56.608Z,8.10
2019-02-07T07:58:50.770Z,5.83
2019-02-07T08:01:37.581Z,9.53
2019-02-07T08:04:16.015Z,7.73
2019-02-07T08:07:16.424Z,9.20
2019-02-07T08:09:57.326Z,9.67
2019-02-07T08:12:37.485Z,13.50
2019-02-07T08:15:19.270Z,26.00
2019-02-07T08:18:15.987Z,9.37
2019-02-07T08:21:02.798Z,8.53
2019-02-07T08:23:51.146Z,11.90
2019-02-07T08:26:48.401Z,7.33
2019-02-07T08:29:48.730Z,8.97
2019-02-07T08:32:36.153Z,11.40
2019-02-07T08:35:23.635Z,9.33
2019-02-07T08:38:26.977Z,9.87
2019-02-07T08:41:13.190Z,8.40
2019-02-07T08:43:59.797Z,9.70
2019-02-07T08:46:56.625Z,8.63
2019-02-07T08:49:41.512Z,5.90
2019-02-07T08:52:28.097Z,8.90
2019-02-07T08:55:21.808Z,4.57
2019-02-07T08:57:59.628Z,6.67
2019-02-07T09:00:43.543Z,6.20
2019-02-07T09:03:35.036Z,6.60
2019-02-07T09:06:41.505Z,8.23
2019-02-07T09:09:33.538Z,8.47
2019-02-07T09:12:21.884Z,7.87
2019-02-07T09:15:03.535Z,23.53
2019-02-07T09:17:51.819Z,18.80
2019-02-07T09:20:43.239Z,7.53
2019-02-07T09:23:34.658Z,7.20
2019-02-07T09:26:21.164Z,16.30
2019-02-07T09:29:15.038Z,10.20
2019-02-07T09:32:01.853Z,9.67
2019-02-07T09:34:38.139Z,11.57
2019-02-07T09:37:34.857Z,8.93
2019-02-07T09:40:29.275Z,5.50
2019-02-07T09:43:11.274Z,9.30
2019-02-07T09:45:58.358Z,7.90
2019-02-07T09:48:38.466Z,11.03
2019-02-07T09:51:26.758Z,10.03
2019-02-07T09:54:10.583Z,12.70
2019-02-07T09:57:02.752Z,10.43
2019-02-07T09:59:41.046Z,7.60
2019-02-07T10:02:32.159Z,9.00
2019-02-07T10:05:26.033Z,9.47
2019-02-07T10:08:21.992Z,10.30
2019-02-07T10:11:03.149Z,16.63
2019-02-07T10:13:50.251Z,7.57
2019-02-07T10:16:35.801Z,10.00
2019-02-07T10:19:32.989Z,10.93
2019-02-07T10:22:39.771Z,8.37
2019-02-07T10:25:26.578Z,10.83
2019-02-07T10:28:07.270Z,9.43
2019-02-07T10:30:54.375Z,6.70
2019-02-07T10:33:43.363Z,6.23
2019-02-07T10:36:31.979Z,10.70
2019-02-07T10:39:20.329Z,6.80
2019-02-07T10:42:06.831Z,7.20
2019-02-07T10:45:07.156Z,9.33
2019-02-07T10:47:53.486Z,6.40
2019-02-07T10:50:40.164Z,4.77
2019-02-07T10:53:31.039Z,7.73
2019-02-07T10:56:27.919Z,7.80
2019-02-07T10:59:14.428Z,7.93
2019-02-07T11:02:02.767Z,8.03
2019-02-07T11:04:49.578Z,7.23
2019-02-07T11:07:36.695Z,5.83
2019-02-07T11:10:37.639Z,5.97
2019-02-07T11:13:24.140Z,7.03
2019-02-07T11:16:21.396Z,8.03
2019-02-07T11:19:02.711Z,7.50
2019-02-07T11:21:49.492Z,6.50
2019-02-07T11:24:47.052Z,5.43
2019-02-07T11:27:43.958Z,8.80
2019-02-07T11:30:33.059Z,4.27
2019-02-07T11:33:12.832Z,7.47
2019-02-07T11:36:01.051Z,7.07
2019-02-07T11:38:52.164Z,7.87
2019-02-07T11:41:43.275Z,7.03
2019-02-07T11:44:34.386Z,7.10
2019-02-07T11:47:29.267Z,5.63
2019-02-07T11:50:15.995Z,12.17
2019-02-07T11:53:02.807Z,4.87
2019-02-07T11:55:56.990Z,6.90
2019-02-07T11:59:00.416Z,5.23
2019-02-07T12:02:08.825Z,3.90
2019-02-07T12:04:50.916Z,6.47
2019-02-07T12:07:50.937Z,7.30
2019-02-07T12:10:42.348Z,6.12
2019-02-07T12:13:29.158Z,5.97
2019-02-07T12:16:26.413Z,5.23
2019-02-07T12:19:18.232Z,5.90
2019-02-07T12:22:14.779Z,11.67
2019-02-07T12:25:21.251Z,4.93
2019-02-07T12:28:09.598Z,4.17
2019-02-07T12:30:57.946Z,4.20
2019-02-07T12:33:46.291Z,6.00
2019-02-07T12:36:40.169Z,6.03
2019-02-07T12:39:29.436Z,4.33
2019-02-07T12:42:07.767Z,8.07
2019-02-07T12:45:01.832Z,5.70
2019-02-07T12:47:47.954Z,8.20
2019-02-07T12:50:34.532Z,6.27
2019-02-07T12:53:29.327Z,7.13
2019-02-07T12:56:20.745Z,7.70
2019-02-07T12:59:07.863Z,5.77
2019-02-07T13:01:58.975Z,11.43
2019-02-07T13:04:55.772Z,10.90
2019-02-07T13:07:58.575Z,7.03
2019-02-07T13:10:58.752Z,8.37
2019-02-07T13:13:34.828Z,5.93
2019-02-07T13:16:32.067Z,8.27
2019-02-07T13:19:20.666Z,10.33
2019-02-07T13:22:08.710Z,11.43
2019-02-07T13:24:55.260Z,7.73
2019-02-07T13:27:58.639Z,8.43
2019-02-07T13:30:41.500Z,9.50
2019-02-07T13:33:33.104Z,11.57
2019-02-07T13:36:20.953Z,6.43
2019-02-07T13:39:18.170Z,8.13
2019-02-07T13:42:15.119Z,6.33
2019-02-07T13:45:13.812Z,7.10
2019-02-07T13:48:01.642Z,7.63
2019-02-07T13:50:49.991Z,7.10
2019-02-07T13:53:49.702Z,7.90
2019-02-07T13:56:34.483Z,11.80
2019-02-07T13:59:21.175Z,8.93
2019-02-07T14:02:12.623Z,8.70
2019-02-07T14:05:09.850Z,10.43
2019-02-07T14:08:04.037Z,8.07
2019-02-07T14:10:44.011Z,10.20
2019-02-07T14:13:41.154Z,7.37
2019-02-07T14:16:28.458Z,6.57
2019-02-07T14:19:16.804Z,7.93
2019-02-07T14:22:04.760Z,7.73
2019-02-07T14:24:51.040Z,7.93
2019-02-07T14:27:37.850Z,6.93
2019-02-07T14:30:27.119Z,9.73
2019-02-07T14:33:04.635Z,8.63
2019-02-07T14:35:51.217Z,7.27
2019-02-07T14:38:48.473Z,11.00
2019-02-07T14:41:35.593Z,8.33
2019-02-07T14:44:26.701Z,11.40
2019-02-07T14:46:55.695Z,7.93
2019-02-07T14:49:24.495Z,10.25
2019-02-07T14:51:53.389Z,12.87
2019-02-07T14:54:22.118Z,9.17
2019-02-07T14:56:51.890Z,8.33
2019-02-07T14:59:20.322Z,10.93
2019-02-07T15:01:49.399Z,10.10
2019-02-07T15:04:18.667Z,8.03
2019-02-07T15:06:47.653Z,7.30
2019-02-07T15:09:19.856Z,21.90
2019-02-07T15:11:49.214Z,8.60
2019-02-07T15:14:17.858Z,10.33
2019-02-07T15:16:46.670Z,9.87
2019-02-07T15:19:15.171Z,11.37
2019-02-07T15:21:43.721Z,12.47
2019-02-07T15:24:13.460Z,12.07
2019-02-07T15:26:42.234Z,12.80
2019-02-07T15:29:10.989Z,14.90
2019-02-07T15:31:39.986Z,10.43
2019-02-07T15:34:09.047Z,11.30
2019-02-07T15:36:38.627Z,13.63
2019-02-07T15:39:08.542Z,8.37
2019-02-07T15:41:38.144Z,14.53
2019-02-07T15:44:06.614Z,13.77
2019-02-07T15:46:35.372Z,10.40
2019-02-07T15:49:04.111Z,10.93
2019-02-07T15:51:33.155Z,12.23
2019-02-07T15:54:02.057Z,12.17
2019-02-07T15:56:30.859Z,14.33
2019-02-07T15:59:19.532Z,16.57
2019-02-07T16:02:02.579Z,24.73
2019-02-07T16:04:37.555Z,16.07
2019-02-07T16:07:06.743Z,14.53
2019-02-07T16:09:35.257Z,14.60
2019-02-07T16:12:04.043Z,13.70
2019-02-07T16:14:33.296Z,23.20
2019-02-07T16:17:02.453Z,18.17
2019-02-07T16:19:31.445Z,12.93
2019-02-07T16:22:00.047Z,15.63
2019-02-07T16:24:28.465Z,16.95
2019-02-07T16:27:03.079Z,17.73
2019-02-07T16:29:31.818Z,15.10
2019-02-07T16:32:00.627Z,23.47
2019-02-07T16:34:28.955Z,21.47
2019-02-07T16:36:57.556Z,18.50
2019-02-07T16:39:26.519Z,19.43
2019-02-07T16:42:05.605Z,22.60
2019-02-07T16:44:26.234Z,18.13
2019-02-07T16:46:55.143Z,21.10
2019-02-07T16:49:23.588Z,21.53
2019-02-07T16:51:52.084Z,21.27
2019-02-07T16:54:20.634Z,22.07
2019-02-07T16:56:49.113Z,24.17
2019-02-07T16:59:18.058Z,23.40
2019-02-07T17:01:46.715Z,23.67
2019-02-07T17:04:15.132Z,23.23
2019-02-07T17:06:43.939Z,27.90
2019-02-07T17:09:20.959Z,28.00
2019-02-07T17:11:49.547Z,22.87
2019-02-07T17:14:18.833Z,30.10
2019-02-07T17:16:48.002Z,27.53
2019-02-07T17:19:17.142Z,25.60
2019-02-07T17:21:46.101Z,25.77
2019-02-07T17:24:14.824Z,25.97
2019-02-07T17:26:43.811Z,27.70
2019-02-07T17:29:13.080Z,28.23
2019-02-07T17:31:42.072Z,31.50
2019-02-07T17:34:11.066Z,25.53
2019-02-07T17:36:39.932Z,29.33
2019-02-07T17:39:08.979Z,26.23
2019-02-07T17:41:39.286Z,25.20
2019-02-07T17:44:08.190Z,23.70
2019-02-07T17:46:37.488Z,26.90
2019-02-07T17:49:06.512Z,24.77
2019-02-07T17:51:35.263Z,26.27
2019-02-07T17:54:04.148Z,25.53
2019-02-07T17:56:32.518Z,27.40
2019-02-07T17:59:01.367Z,24.63
2019-02-07T18:01:30.299Z,31.53
2019-02-07T18:03:59.054Z,31.57
2019-02-07T18:06:28.022Z,27.30
2019-02-07T18:08:56.674Z,32.10
2019-02-07T18:11:25.776Z,30.20
2019-02-07T18:13:54.647Z,30.00
2019-02-07T18:16:23.291Z,29.10
2019-02-07T18:18:52.178Z,31.97
2019-02-07T18:21:20.676Z,30.17
2019-02-07T18:23:49.346Z,25.80
2019-02-07T18:26:18.383Z,24.43
2019-02-07T18:28:47.147Z,28.23
2019-02-07T18:31:16.143Z,25.87
2019-02-07T18:33:44.745Z,27.37
2019-02-07T18:36:13.362Z,32.67
2019-02-07T18:38:41.822Z,23.70
2019-02-07T18:41:10.809Z,28.63
2019-02-07T18:43:39.655Z,28.27
2019-02-07T18:46:08.133Z,30.77
2019-02-07T18:48:36.611Z,30.57
2019-02-07T18:51:05.775Z,30.77
2019-02-07T18:53:34.323Z,30.73
2019-02-07T18:56:03.194Z,30.72
2019-02-07T18:58:32.321Z,30.17
2019-02-07T19:01:01.370Z,30.73
2019-02-07T19:03:31.391Z,32.63
2019-02-07T19:05:59.683Z,34.70
2019-02-07T19:08:28.282Z,35.23
2019-02-07T19:10:57.187Z,32.37
2019-02-07T19:13:26.486Z,33.03
2019-02-07T19:15:59.781Z,36.20
2019-02-07T19:18:28.630Z,35.97
2019-02-07T19:20:57.115Z,35.13
2019-02-07T19:23:25.848Z,35.20
2019-02-07T19:25:54.782Z,35.67
2019-02-07T19:28:23.524Z,29.93
2019-02-07T19:30:52.510Z,34.83
2019-02-07T19:33:22.584Z,36.63
2019-02-07T19:35:51.811Z,37.80
2019-02-07T19:38:20.700Z,43.07
2019-02-07T19:40:49.666Z,41.80
2019-02-07T19:43:18.581Z,41.23
2019-02-07T19:45:47.003Z,39.43
2019-02-07T19:48:15.940Z,41.90
2019-02-07T19:50:44.518Z,44.47
2019-02-07T19:53:13.005Z,40.93
2019-02-07T19:55:41.543Z,43.23
2019-02-07T19:58:10.512Z,48.67
2019-02-07T20:00:39.602Z,42.53
2019-02-07T20:03:08.500Z,39.37
2019-02-07T20:05:37.533Z,39.53
2019-02-07T20:08:06.486Z,36.87
2019-02-07T20:10:36.541Z,41.10
2019-02-07T20:13:05.243Z,40.50
2019-02-07T20:15:35.023Z,46.70
2019-02-07T20:18:04.536Z,36.93
2019-02-07T20:20:33.288Z,42.70
2019-02-07T20:23:01.816Z,41.83
2019-02-07T20:25:31.588Z,42.50
2019-02-07T20:28:00.810Z,52.10
2019-02-07T20:30:30.353Z,46.70
2019-02-07T20:32:59.439Z,45.00
2019-02-07T20:35:27.892Z,48.53
2019-02-07T20:37:56.550Z,42.27
2019-02-07T20:40:26.639Z,45.77
2019-02-07T20:42:55.464Z,46.93
2019-02-07T20:45:24.502Z,44.33
2019-02-07T20:47:53.098Z,44.37
2019-02-07T20:50:22.286Z,43.57
2019-02-07T20:52:51.283Z,42.97
2019-02-07T20:55:20.671Z,40.50
2019-02-07T20:57:49.589Z,42.47
2019-02-07T21:00:20.415Z,36.83
2019-02-07T21:02:49.334Z,47.97
2019-02-07T21:05:18.148Z,40.37
2019-02-07T21:07:46.622Z,38.13
2019-02-07T21:10:15.676Z,42.63
2019-02-07T21:12:44.609Z,47.53
2019-02-07T21:15:18.665Z,40.73
2019-02-07T21:17:44.739Z,45.60
2019-02-07T21:20:14.799Z,45.33
2019-02-07T21:22:44.187Z,46.27
2019-02-07T21:25:14.590Z,38.30
2019-02-07T21:27:43.073Z,37.83
2019-02-07T21:30:14.210Z,45.60
2019-02-07T21:32:43.308Z,51.30
2019-02-07T21:35:12.850Z,48.10
2019-02-07T21:37:42.207Z,53.43
2019-02-07T21:40:11.597Z,50.07
2019-02-07T21:42:40.303Z,43.53
2019-02-07T21:45:09.397Z,46.93
2019-02-07T21:47:37.823Z,48.13
2019-02-07T21:50:07.587Z,48.43
2019-02-07T21:52:41.824Z,47.93
2019-02-07T21:55:07.099Z,48.73
2019-02-07T21:57:36.149Z,48.23
2019-02-07T22:00:09.086Z,45.30
2019-02-07T22:02:37.922Z,46.33
2019-02-07T22:05:07.067Z,45.97
2019-02-07T22:07:35.620Z,46.33
2019-02-07T22:10:04.948Z,52.77
2019-02-07T22:12:34.127Z,49.30
2019-02-07T22:15:02.844Z,50.40
2019-02-07T22:17:31.802Z,43.90
2019-02-07T22:20:00.245Z,50.95
2019-02-07T22:22:28.959Z,46.83
2019-02-07T22:24:58.000Z,46.77
2019-02-07T22:27:27.300Z,54.43
2019-02-07T22:29:56.047Z,46.93
2019-02-07T22:32:24.599Z,46.93
2019-02-07T22:34:53.114Z,45.90
2019-02-07T22:37:22.350Z,48.23
2019-02-07T22:39:51.298Z,51.10
2019-02-07T22:42:19.615Z,54.83
2019-02-07T22:44:48.100Z,54.83
2019-02-07T22:47:16.990Z,59.83
2019-02-07T22:49:45.781Z,59.33
2019-02-07T22:52:14.383Z,59.10
2019-02-07T22:54:42.866Z,57.67
2019-02-07T22:57:11.838Z,63.50
2019-02-07T22:59:40.550Z,65.73
2019-02-07T23:02:09.475Z,61.00
2019-02-07T23:04:38.363Z,66.60
2019-02-07T23:07:07.046Z,64.20
2019-02-07T23:09:35.975Z,64.93
2019-02-07T23:12:05.438Z,74.17
2019-02-07T23:14:34.093Z,69.70
2019-02-07T23:17:02.877Z,69.03
2019-02-07T23:19:31.406Z,70.73
2019-02-07T23:21:59.945Z,71.07
2019-02-07T23:24:28.512Z,72.20
2019-02-07T23:26:56.993Z,71.87
2019-02-07T23:29:25.674Z,71.73
2019-02-07T23:31:54.290Z,77.23
2019-02-07T23:34:23.053Z,70.53
2019-02-07T23:36:51.697Z,66.63
2019-02-07T23:39:20.690Z,61.80
2019-02-07T23:41:49.422Z,64.00
2019-02-07T23:44:18.122Z,61.23
2019-02-07T23:46:46.815Z,65.50
2019-02-07T23:49:17.935Z,59.67
2019-02-07T23:51:46.927Z,55.93
2019-02-07T23:54:15.691Z,61.17
2019-02-07T23:56:44.233Z,67.53
2019-02-07T23:59:12.985Z,51.93
